Sinegorsk — YJRC5 — position and weather

sailwx.info

Track history (hours):
 
Tides and Currents Weather Stations Pressure Air Temp Water Temp Dewpoint Dewpoint Depression Visibility Wind Speed Wind Dir Waves Ship Positions

Sinegorsk

Last reported at 2015-Jan-27 22:30 UTC. Time now 2015-Jan-28 04:17 UTC.
Position N 36°33' W 000°19'.

Length 133 m; draft 8.3 m.

Type: Cargo ship. MMSI: 576292000.

Date/timePositionNaut miles runAvg speedWind from/ knotsBaromVisibWave heightAir tempDewpointWater temp
2015-Jan-27 22:30N 36°33' W 000°19'1111.4
2015-Jan-27 21:30N 36°31' W 000°33'1111.5
2015-Jan-27 20:33N 36°29' W 000°46'21511.7
2015-Jan-27 02:04N 35°59' W 005°11'612.6
2015-Jan-27 01:33N 35°59' W 005°19'16911.8
2015-Jan-26 11:18N 36°28' W 008°45'811.2
2015-Jan-26 10:33N 36°30' W 008°55'1111.1
2015-Jan-26 09:33N 36°33' W 009°08'1110.9
2015-Jan-26 08:33N 36°37' W 009°20'1211.4
2015-Jan-26 07:32N 36°46' W 009°30'1111.4
2015-Jan-26 06:33N 36°56' W 009°35'1211.5
2015-Jan-26 05:33N 37°08' W 009°38'1111.4
2015-Jan-26 04:33N 37°19' W 009°42'1211.6
2015-Jan-26 03:33N 37°30' W 009°45'1211.6
2015-Jan-26 02:33N 37°41' W 009°48'1211.5
2015-Jan-26 01:32N 37°53' W 009°51'1111.4
2015-Jan-26 00:33N 38°04' W 009°54'1111.4
2015-Jan-25 23:33N 38°15' W 009°58'1211.7
2015-Jan-25 22:33N 38°26' W 010°01'1211.9
2015-Jan-25 21:33N 38°38' W 010°04'1211.8
2015-Jan-25 20:33N 38°50' W 010°05'1111.6
2015-Jan-25 19:33N 39°01' W 010°06'  
2015-Jan-22 12:13N 50°30' W 000°05'710.1
2015-Jan-22 11:32N 50°31' E 000°06'9 9.2
2015-Jan-22 10:34N 50°34' E 000°19'8 8.4
2015-Jan-22 09:33N 50°36' E 000°32'10 9.8
2015-Jan-22 08:33N 50°42' E 000°44'1211.9
2015-Jan-22 07:33N 50°49' E 000°59'1313.1
2015-Jan-22 06:33N 50°58' E 001°15'1312.8
2015-Jan-22 05:33N 51°06' E 001°31'1110.8
2015-Jan-22 04:33N 51°13' E 001°44'10 9.8
2015-Jan-22 03:34N 51°22' E 001°51'9 9.2
2015-Jan-22 02:33N 51°29' E 002°00'10 9.6
2015-Jan-22 01:33N 51°37' E 002°10'10 9.7
2015-Jan-22 00:33N 51°44' E 002°21'1311.6
2015-Jan-21 23:23N 51°54' E 002°35'1612.7
2015-Jan-21 22:06N 52°07' E 002°51'712.9
2015-Jan-21 21:32N 52°13' E 002°59'8811.0
2015-Jan-21 13:32N 53°21' E 004°30'1111.4
2015-Jan-21 12:33N 53°31' E 004°36'1311.2
2015-Jan-21 11:23N 53°44' E 004°44'910.7
2015-Jan-21 10:32N 53°52' E 004°49'1010.6
2015-Jan-21 09:33N 54°02' E 004°55'1210.2
2015-Jan-21 08:23N 54°13' E 005°03'910.3
2015-Jan-21 07:30N 54°20' E 005°12'8010.9
2015-Jan-21 00:09N 55°29' E 006°24'20110.5
2015-Jan-20 05:05N 57°48' E 010°49'611.2
2015-Jan-20 04:33N 57°44' E 010°56'1211.4
2015-Jan-20 03:32N 57°35' E 011°12'1111.2
2015-Jan-20 02:33N 57°28' E 011°26'1111.0
2015-Jan-20 01:33N 57°17' E 011°33'1211.9
2015-Jan-20 00:34N 57°06' E 011°40'1211.8
2015-Jan-19 23:33N 56°55' E 011°48'1111.4
2015-Jan-19 22:33N 56°44' E 011°52'1211.4
2015-Jan-19 21:32N 56°34' E 011°41'11411.2
2015-Jan-19 11:19N 54°43' E 010°53'1011.8
2015-Jan-19 10:29N 54°38' E 011°07'1112.1
2015-Jan-19 09:33N 54°33' E 011°25'1211.8
2015-Jan-19 08:33N 54°28' E 011°43'1111.4
2015-Jan-19 07:33N 54°27' E 012°03'1010.2
2015-Jan-19 06:33N 54°35' E 012°14'1111.1
2015-Jan-19 05:33N 54°42' E 012°28'1111.3
2015-Jan-19 04:33N 54°48' E 012°45'1111.3
2015-Jan-19 03:33N 54°52' E 013°03'1211.1
2015-Jan-19 02:26N 54°56' E 013°24'910.8
2015-Jan-19 01:33N 54°59' E 013°39'10 9.9
2015-Jan-19 00:33N 55°02' E 013°56'10 9.8
2015-Jan-18 23:33N 55°07' E 014°10'1010.3
2015-Jan-18 22:33N 55°16' E 014°21'1110.6
2015-Jan-18 21:33N 55°24' E 014°33'1010.0
2015-Jan-18 20:33N 55°27' E 014°49'1111.1
2015-Jan-18 19:33N 55°27' E 015°09'1110.9
2015-Jan-18 18:33N 55°26' E 015°28'1510.9
2015-Jan-18 17:11N 55°24' E 015°54'6910.4
2015-Jan-18 10:33N 55°06' E 017°51'1110.6
2015-Jan-18 09:33N 55°03' E 018°09'1010.5
2015-Jan-18 08:33N 55°00' E 018°26'1010.3
2015-Jan-18 07:33N 54°57' E 018°44'1010.2
2015-Jan-18 06:33N 54°54' E 019°01'1010.2
2015-Jan-18 05:33N 54°50' E 019°17'10 9.8
2015-Jan-18 04:33N 54°46' E 019°32'10 9.8
2015-Jan-18 03:33N 54°41' E 019°47'6 5.0
2015-Jan-18 02:25N 54°38' E 019°55'0 0.0
2015-Jan-18 01:25N 54°38' E 019°55'0 0.0
2015-Jan-18 00:14N 54°38' E 019°55'  
Track history (hours):
 
Tides and Currents Weather Stations Pressure Air Temp Water Temp Dewpoint Dewpoint Depression Visibility Wind Speed Wind Dir Waves Ship Positions

Sinegorsk

Last reported at 2015-Jan-27 22:30 UTC. Time now 2015-Jan-28 04:17 UTC.
Position N 36°33' W 000°19'.

Length 133 m; draft 8.3 m.

Type: Cargo ship. MMSI: 576292000.

Date/timePositionNaut miles runAvg speedWind from/ knotsBaromVisibWave heightAir tempDewpointWater temp
2015-Jan-27 22:30N 36°33' W 000°19'1111.4
2015-Jan-27 21:30N 36°31' W 000°33'1111.5
2015-Jan-27 20:33N 36°29' W 000°46'21511.7
2015-Jan-27 02:04N 35°59' W 005°11'612.6
2015-Jan-27 01:33N 35°59' W 005°19'16911.8
2015-Jan-26 11:18N 36°28' W 008°45'811.2
2015-Jan-26 10:33N 36°30' W 008°55'1111.1
2015-Jan-26 09:33N 36°33' W 009°08'1110.9
2015-Jan-26 08:33N 36°37' W 009°20'1211.4
2015-Jan-26 07:32N 36°46' W 009°30'1111.4
2015-Jan-26 06:33N 36°56' W 009°35'1211.5
2015-Jan-26 05:33N 37°08' W 009°38'1111.4
2015-Jan-26 04:33N 37°19' W 009°42'1211.6
2015-Jan-26 03:33N 37°30' W 009°45'1211.6
2015-Jan-26 02:33N 37°41' W 009°48'1211.5
2015-Jan-26 01:32N 37°53' W 009°51'1111.4
2015-Jan-26 00:33N 38°04' W 009°54'1111.4
2015-Jan-25 23:33N 38°15' W 009°58'1211.7
2015-Jan-25 22:33N 38°26' W 010°01'1211.9
2015-Jan-25 21:33N 38°38' W 010°04'1211.8
2015-Jan-25 20:33N 38°50' W 010°05'1111.6
2015-Jan-25 19:33N 39°01' W 010°06'  
2015-Jan-22 12:13N 50°30' W 000°05'710.1
2015-Jan-22 11:32N 50°31' E 000°06'9 9.2
2015-Jan-22 10:34N 50°34' E 000°19'8 8.4
2015-Jan-22 09:33N 50°36' E 000°32'10 9.8
2015-Jan-22 08:33N 50°42' E 000°44'1211.9
2015-Jan-22 07:33N 50°49' E 000°59'1313.1
2015-Jan-22 06:33N 50°58' E 001°15'1312.8
2015-Jan-22 05:33N 51°06' E 001°31'1110.8
2015-Jan-22 04:33N 51°13' E 001°44'10 9.8
2015-Jan-22 03:34N 51°22' E 001°51'9 9.2
2015-Jan-22 02:33N 51°29' E 002°00'10 9.6
2015-Jan-22 01:33N 51°37' E 002°10'10 9.7
2015-Jan-22 00:33N 51°44' E 002°21'1311.6
2015-Jan-21 23:23N 51°54' E 002°35'1612.7
2015-Jan-21 22:06N 52°07' E 002°51'712.9
2015-Jan-21 21:32N 52°13' E 002°59'8811.0
2015-Jan-21 13:32N 53°21' E 004°30'1111.4
2015-Jan-21 12:33N 53°31' E 004°36'1311.2
2015-Jan-21 11:23N 53°44' E 004°44'910.7
2015-Jan-21 10:32N 53°52' E 004°49'1010.6
2015-Jan-21 09:33N 54°02' E 004°55'1210.2
2015-Jan-21 08:23N 54°13' E 005°03'910.3
2015-Jan-21 07:30N 54°20' E 005°12'8010.9
2015-Jan-21 00:09N 55°29' E 006°24'20110.5
2015-Jan-20 05:05N 57°48' E 010°49'611.2
2015-Jan-20 04:33N 57°44' E 010°56'1211.4
2015-Jan-20 03:32N 57°35' E 011°12'1111.2
2015-Jan-20 02:33N 57°28' E 011°26'1111.0
2015-Jan-20 01:33N 57°17' E 011°33'1211.9
2015-Jan-20 00:34N 57°06' E 011°40'1211.8
2015-Jan-19 23:33N 56°55' E 011°48'1111.4
2015-Jan-19 22:33N 56°44' E 011°52'1211.4
2015-Jan-19 21:32N 56°34' E 011°41'11411.2
2015-Jan-19 11:19N 54°43' E 010°53'1011.8
2015-Jan-19 10:29N 54°38' E 011°07'1112.1
2015-Jan-19 09:33N 54°33' E 011°25'1211.8
2015-Jan-19 08:33N 54°28' E 011°43'1111.4
2015-Jan-19 07:33N 54°27' E 012°03'1010.2
2015-Jan-19 06:33N 54°35' E 012°14'1111.1
2015-Jan-19 05:33N 54°42' E 012°28'1111.3
2015-Jan-19 04:33N 54°48' E 012°45'1111.3
2015-Jan-19 03:33N 54°52' E 013°03'1211.1
2015-Jan-19 02:26N 54°56' E 013°24'910.8
2015-Jan-19 01:33N 54°59' E 013°39'10 9.9
2015-Jan-19 00:33N 55°02' E 013°56'10 9.8
2015-Jan-18 23:33N 55°07' E 014°10'1010.3
2015-Jan-18 22:33N 55°16' E 014°21'1110.6
2015-Jan-18 21:33N 55°24' E 014°33'1010.0
2015-Jan-18 20:33N 55°27' E 014°49'1111.1
2015-Jan-18 19:33N 55°27' E 015°09'1110.9
2015-Jan-18 18:33N 55°26' E 015°28'1510.9
2015-Jan-18 17:11N 55°24' E 015°54'6910.4
2015-Jan-18 10:33N 55°06' E 017°51'1110.6
2015-Jan-18 09:33N 55°03' E 018°09'1010.5
2015-Jan-18 08:33N 55°00' E 018°26'1010.3
2015-Jan-18 07:33N 54°57' E 018°44'1010.2
2015-Jan-18 06:33N 54°54' E 019°01'1010.2
2015-Jan-18 05:33N 54°50' E 019°17'10 9.8
2015-Jan-18 04:33N 54°46' E 019°32'10 9.8
2015-Jan-18 03:33N 54°41' E 019°47'6 5.0
2015-Jan-18 02:25N 54°38' E 019°55'0 0.0
2015-Jan-18 01:25N 54°38' E 019°55'0 0.0
2015-Jan-18 00:14N 54°38' E 019°55'  

Dump ship's entire track history